createdAt,value
2022-09-25T00:00:22.258Z,100517.59
2022-09-25T00:04:44.167Z,100512.97
2022-09-25T00:08:46.231Z,100515.78
2022-09-25T00:12:48.312Z,100518.38
2022-09-25T00:16:50.095Z,100515.19
2022-09-25T00:21:01.011Z,100527.00
2022-09-25T00:25:03.545Z,100519.31
2022-09-25T00:29:06.709Z,100512.75
2022-09-25T00:33:08.482Z,100512.09
2022-09-25T00:37:10.649Z,100511.28
2022-09-25T00:41:12.879Z,100511.56
2022-09-25T00:45:21.676Z,100501.91
2022-09-25T00:49:24.638Z,100506.22
2022-09-25T00:53:36.470Z,100500.56
2022-09-25T00:57:40.718Z,100495.72
2022-09-25T01:01:42.915Z,100498.50
2022-09-25T01:05:45.564Z,100501.91
2022-09-25T01:09:47.407Z,100498.47
2022-09-25T01:13:49.564Z,100500.72
2022-09-25T01:18:05.937Z,100499.56
2022-09-25T01:22:22.178Z,100496.66
2022-09-25T01:26:42.405Z,100500.25
2022-09-25T01:30:48.256Z,100500.13
2022-09-25T01:34:59.763Z,100506.19
2022-09-25T01:39:07.755Z,100496.19
2022-09-25T01:43:34.713Z,100497.06
2022-09-25T01:47:38.653Z,100489.34
2022-09-25T01:51:51.881Z,100482.19
2022-09-25T01:56:02.569Z,100479.09
2022-09-25T02:00:07.597Z,100474.78
2022-09-25T02:04:29.559Z,100483.47
2022-09-25T02:08:39.588Z,100484.19
2022-09-25T02:12:47.969Z,100484.97
2022-09-25T02:16:56.347Z,100486.19
2022-09-25T02:21:14.118Z,100482.13
2022-09-25T02:25:25.496Z,100469.28
2022-09-25T02:29:29.684Z,100469.38
2022-09-25T02:33:31.665Z,100463.25
2022-09-25T02:37:33.364Z,100454.81
2022-09-25T02:42:03.482Z,100455.22
2022-09-25T02:46:10.683Z,100457.03
2022-09-25T02:50:42.264Z,100451.38
2022-09-25T02:55:02.602Z,100452.50
2022-09-25T02:59:09.555Z,100449.78
2022-09-25T03:03:15.006Z,100449.13
2022-09-25T03:07:18.592Z,100444.88
2022-09-25T03:11:23.656Z,100439.72
2022-09-25T03:15:26.113Z,100445.06
2022-09-25T03:19:30.886Z,100442.63
2022-09-25T03:23:32.939Z,100443.41
2022-09-25T03:27:34.864Z,100445.16
2022-09-25T03:31:36.681Z,100441.72
2022-09-25T03:35:39.875Z,100442.56
2022-09-25T03:39:41.814Z,100445.31
2022-09-25T03:43:43.850Z,100447.84
2022-09-25T03:47:45.692Z,100447.13
2022-09-25T03:51:47.574Z,100450.44
2022-09-25T03:55:49.562Z,100452.28
2022-09-25T03:59:51.738Z,100447.25
2022-09-25T04:03:54.208Z,100450.94
2022-09-25T04:07:55.897Z,100458.03
2022-09-25T04:11:57.908Z,100456.28
2022-09-25T04:16:01.591Z,100464.00
2022-09-25T04:20:03.715Z,100454.66
2022-09-25T04:24:23.883Z,100462.31
2022-09-25T04:28:26.569Z,100451.16
2022-09-25T04:32:46.667Z,100460.66
2022-09-25T04:36:48.548Z,100463.72
2022-09-25T04:40:50.730Z,100456.88
2022-09-25T04:44:54.154Z,100457.63
2022-09-25T04:48:55.768Z,100455.78
2022-09-25T04:52:58.311Z,100455.47
2022-09-25T04:56:59.962Z,100453.66
2022-09-25T05:01:08.314Z,100455.91
2022-09-25T05:05:11.413Z,100460.81
2022-09-25T05:09:13.250Z,100453.34
2022-09-25T05:13:14.853Z,100438.56
2022-09-25T05:17:16.912Z,100451.84
2022-09-25T05:21:18.578Z,100465.19
2022-09-25T05:25:23.449Z,100463.16
2022-09-25T05:29:25.429Z,100468.13
2022-09-25T05:33:27.241Z,100469.38
2022-09-25T05:37:28.906Z,100468.19
2022-09-25T05:41:32.048Z,100472.88
2022-09-25T05:45:35.674Z,100482.81
2022-09-25T05:49:37.437Z,100474.28
2022-09-25T05:53:39.354Z,100476.22
2022-09-25T05:57:41.246Z,100479.16
2022-09-25T06:01:42.924Z,100473.41
2022-09-25T06:05:46.024Z,100469.03
2022-09-25T06:09:47.736Z,100470.75
2022-09-25T06:13:54.291Z,100471.44
2022-09-25T06:17:56.875Z,100474.19
2022-09-25T06:21:58.764Z,100468.66
2022-09-25T06:26:02.335Z,100472.19
2022-09-25T06:30:05.072Z,100463.34
2022-09-25T06:34:06.846Z,100457.78
2022-09-25T06:38:09.302Z,100448.13
2022-09-25T06:42:11.043Z,100431.13
2022-09-25T06:46:12.883Z,100420.91
2022-09-25T06:50:15.101Z,100404.69
2022-09-25T06:54:17.683Z,100374.56
2022-09-25T06:58:22.322Z,100374.78
2022-09-25T07:02:42.922Z,100371.75
2022-09-25T07:06:45.490Z,100372.94
2022-09-25T07:10:49.339Z,100376.94
2022-09-25T07:14:50.970Z,100380.75
2022-09-25T07:18:54.657Z,100376.38
2022-09-25T07:23:03.970Z,100407.56
2022-09-25T07:27:05.916Z,100403.00
2022-09-25T07:31:17.515Z,100419.75
2022-09-25T07:35:19.907Z,100433.31
2022-09-25T07:39:21.507Z,100444.47
2022-09-25T07:43:23.596Z,100452.47
2022-09-25T07:47:25.287Z,100461.09
2022-09-25T07:51:27.114Z,100442.66
2022-09-25T07:55:29.268Z,100437.66
2022-09-25T07:59:31.103Z,100462.41
2022-09-25T08:03:32.945Z,100463.34
2022-09-25T08:07:34.857Z,100481.97
2022-09-25T08:11:36.807Z,100480.09
2022-09-25T08:15:38.770Z,100481.19
2022-09-25T08:19:40.616Z,100480.03
2022-09-25T08:23:47.693Z,100489.44
2022-09-25T08:27:49.840Z,100491.00
2022-09-25T08:31:51.792Z,100484.03
2022-09-25T08:35:58.363Z,100484.69
2022-09-25T08:40:00.860Z,100468.41
2022-09-25T08:44:28.129Z,100461.97
2022-09-25T08:48:53.668Z,100468.13
2022-09-25T08:53:07.350Z,100459.09
2022-09-25T08:57:29.462Z,100440.88
2022-09-25T09:01:49.809Z,100439.19
2022-09-25T09:06:06.995Z,100428.25
2022-09-25T09:10:23.586Z,100408.25
2022-09-25T09:14:30.885Z,100419.22
2022-09-25T09:18:37.768Z,100417.81
2022-09-25T09:22:45.378Z,100416.09
2022-09-25T09:27:19.382Z,100427.91
2022-09-25T09:31:33.826Z,100421.94
2022-09-25T09:35:53.654Z,100427.38
2022-09-25T09:40:20.545Z,100417.78
2022-09-25T09:44:28.584Z,100415.25
2022-09-25T09:48:59.508Z,100420.47
2022-09-25T09:53:05.800Z,100419.78
2022-09-25T09:57:26.885Z,100416.94
2022-09-25T10:01:42.931Z,100396.50
2022-09-25T10:05:49.963Z,100392.66
2022-09-25T10:09:54.260Z,100396.81
2022-09-25T10:14:00.065Z,100386.13
2022-09-25T10:18:03.593Z,100375.97
2022-09-25T10:22:16.879Z,100371.06
2022-09-25T10:26:33.251Z,100373.31
2022-09-25T10:30:35.192Z,100370.53
2022-09-25T10:34:37.022Z,100375.22
2022-09-25T10:38:53.478Z,100368.13
2022-09-25T10:43:18.671Z,100365.69
2022-09-25T10:47:39.171Z,100365.56
2022-09-25T10:52:01.857Z,100359.81
2022-09-25T10:56:06.945Z,100357.50
2022-09-25T11:00:24.217Z,100347.28
2022-09-25T11:04:32.449Z,100346.97
2022-09-25T11:08:38.897Z,100343.72
2022-09-25T11:12:45.264Z,100333.84
2022-09-25T11:16:57.943Z,100328.81
2022-09-25T11:21:04.639Z,100327.84
2022-09-25T11:25:17.515Z,100319.88
2022-09-25T11:29:41.106Z,100318.34
2022-09-25T11:33:56.232Z,100304.22
2022-09-25T11:38:17.129Z,100310.50
2022-09-25T11:42:35.559Z,100305.50
2022-09-25T11:46:46.899Z,100306.88
2022-09-25T11:51:01.682Z,100304.22
2022-09-25T11:55:23.071Z,100301.56
2022-09-25T11:59:39.559Z,100302.81
2022-09-25T12:04:20.301Z,100299.44
2022-09-25T12:08:49.017Z,100296.47
2022-09-25T12:13:15.177Z,100285.84
2022-09-25T12:17:36.057Z,100285.97
2022-09-25T12:22:05.488Z,100280.38
2022-09-25T12:26:25.918Z,100280.25
2022-09-25T12:30:38.824Z,100268.94
2022-09-25T12:34:55.749Z,100258.78
2022-09-25T12:39:08.808Z,100262.31
2022-09-25T12:43:33.514Z,100257.19
2022-09-25T12:47:46.576Z,100248.38
2022-09-25T12:51:51.333Z,100244.44
2022-09-25T12:55:59.715Z,100234.09
2022-09-25T13:00:25.761Z,100250.34
2022-09-25T13:05:02.315Z,100243.44
2022-09-25T13:09:18.354Z,100238.19
2022-09-25T13:13:24.804Z,100231.97
2022-09-25T13:17:26.642Z,100237.44
2022-09-25T13:21:35.761Z,100224.69
2022-09-25T13:25:47.512Z,100226.25
2022-09-25T13:29:57.013Z,100227.25
2022-09-25T13:34:01.661Z,100216.72
2022-09-25T13:38:36.008Z,100214.38
2022-09-25T13:42:42.231Z,100219.53
2022-09-25T13:46:44.052Z,100216.69
2022-09-25T13:50:47.160Z,100216.00
2022-09-25T13:54:49.064Z,100214.63
2022-09-25T13:59:13.864Z,100208.91
2022-09-25T14:03:44.151Z,100200.13
2022-09-25T14:07:49.617Z,100202.91
2022-09-25T14:12:04.077Z,100197.16
2022-09-25T14:16:10.216Z,100199.28
2022-09-25T14:20:32.420Z,100198.13
2022-09-25T14:24:35.506Z,100190.19
2022-09-25T14:28:47.671Z,100198.53
2022-09-25T14:33:25.880Z,100182.06
2022-09-25T14:37:52.543Z,100170.59
2022-09-25T14:42:18.734Z,100167.47
2022-09-25T14:46:22.419Z,100159.34
2022-09-25T14:50:27.136Z,100155.06
2022-09-25T14:54:35.946Z,100149.00
2022-09-25T14:58:42.513Z,100137.53
2022-09-25T15:02:46.802Z,100138.72
2022-09-25T15:06:59.491Z,100142.88
2022-09-25T15:11:12.249Z,100132.41
2022-09-25T15:15:14.276Z,100131.81
2022-09-25T15:19:22.762Z,100126.66
2022-09-25T15:23:24.691Z,100116.84
2022-09-25T15:27:28.402Z,100109.97
2022-09-25T15:31:37.408Z,100108.03
2022-09-25T15:35:39.489Z,100096.44
2022-09-25T15:39:42.718Z,100075.91
2022-09-25T15:43:44.862Z,100063.97
2022-09-25T15:47:46.478Z,100067.59
2022-09-25T15:51:58.248Z,100047.97
2022-09-25T15:56:22.806Z,100021.78
2022-09-25T16:00:44.902Z,100006.25
2022-09-25T16:04:51.939Z,99997.38
2022-09-25T16:09:09.159Z,99990.09
2022-09-25T16:13:22.754Z,99967.72
2022-09-25T16:17:29.439Z,99977.69
2022-09-25T16:21:33.929Z,99978.19
2022-09-25T16:25:42.498Z,99972.44
2022-09-25T16:29:44.965Z,99969.06
2022-09-25T16:33:50.701Z,99972.81
2022-09-25T16:37:53.164Z,99957.09
2022-09-25T16:41:55.820Z,99954.09
2022-09-25T16:46:00.534Z,99954.81
2022-09-25T16:50:02.722Z,99958.16
2022-09-25T16:54:09.981Z,99959.97
2022-09-25T16:58:12.431Z,99950.59
2022-09-25T17:02:37.045Z,99959.56
2022-09-25T17:06:40.927Z,99949.38
2022-09-25T17:10:42.838Z,99952.13
2022-09-25T17:14:44.842Z,99961.06
2022-09-25T17:18:46.548Z,99956.59
2022-09-25T17:22:49.267Z,99960.63
2022-09-25T17:26:54.266Z,99967.72
2022-09-25T17:30:56.226Z,99968.16
2022-09-25T17:35:00.626Z,99976.91
2022-09-25T17:39:02.485Z,99976.41
2022-09-25T17:43:04.246Z,99977.78
2022-09-25T17:47:06.379Z,99971.25
2022-09-25T17:51:16.306Z,99971.34
2022-09-25T17:55:20.509Z,99965.09
2022-09-25T17:59:22.294Z,99955.81
2022-09-25T18:03:24.203Z,99953.19
2022-09-25T18:07:29.912Z,99946.69
2022-09-25T18:11:34.672Z,99942.63
2022-09-25T18:15:42.123Z,99946.41
2022-09-25T18:20:02.770Z,99946.88
2022-09-25T18:24:04.706Z,99947.69
2022-09-25T18:28:07.133Z,99949.72
2022-09-25T18:32:08.779Z,99950.06
2022-09-25T18:36:10.871Z,99944.78
2022-09-25T18:40:14.632Z,99951.97
2022-09-25T18:44:17.900Z,99949.34
2022-09-25T18:48:19.952Z,99957.22
2022-09-25T18:52:21.919Z,99953.41
2022-09-25T18:56:23.679Z,99954.25
2022-09-25T19:00:26.786Z,99959.63
2022-09-25T19:04:28.753Z,99947.84
2022-09-25T19:08:31.297Z,99950.50
2022-09-25T19:12:33.607Z,99955.88
2022-09-25T19:16:38.254Z,99960.28
2022-09-25T19:20:54.505Z,99965.78
2022-09-25T19:24:56.797Z,99959.97
2022-09-25T19:29:00.275Z,99960.50
2022-09-25T19:33:02.312Z,99959.88
2022-09-25T19:37:04.532Z,99957.81
2022-09-25T19:41:15.689Z,99940.84
2022-09-25T19:45:18.635Z,99946.00
2022-09-25T19:49:20.756Z,99936.03
2022-09-25T19:53:22.612Z,99952.66
2022-09-25T19:57:24.523Z,99944.28
2022-09-25T20:01:30.161Z,99951.88
2022-09-25T20:05:41.262Z,99938.22
2022-09-25T20:09:44.516Z,99939.06
2022-09-25T20:13:48.802Z,99946.94
2022-09-25T20:17:50.522Z,99940.53
2022-09-25T20:21:53.029Z,99941.94
2022-09-25T20:25:55.240Z,99935.09
2022-09-25T20:29:57.103Z,99949.47
2022-09-25T20:33:58.831Z,99944.22
2022-09-25T20:38:00.749Z,99937.81
2022-09-25T20:42:02.411Z,99940.84
2022-09-25T20:46:09.794Z,99950.38
2022-09-25T20:50:11.542Z,99947.09
2022-09-25T20:54:13.717Z,99937.84
2022-09-25T20:58:15.625Z,99954.34
2022-09-25T21:02:17.721Z,99941.94
2022-09-25T21:06:22.883Z,99941.75
2022-09-25T21:10:24.756Z,99932.81
2022-09-25T21:14:28.478Z,99940.00
2022-09-25T21:18:31.735Z,99935.41
2022-09-25T21:22:33.434Z,99942.44
2022-09-25T21:26:35.455Z,99949.94
2022-09-25T21:30:38.608Z,99954.88
2022-09-25T21:34:40.528Z,99954.78
2022-09-25T21:38:43.358Z,99972.03
2022-09-25T21:42:45.166Z,99964.53
2022-09-25T21:46:47.070Z,99956.41
2022-09-25T21:50:53.983Z,99957.34
2022-09-25T21:54:55.624Z,99951.34
2022-09-25T21:58:58.592Z,99940.88
2022-09-25T22:03:00.305Z,99931.91
2022-09-25T22:07:02.477Z,99927.16
2022-09-25T22:11:05.949Z,99915.91
2022-09-25T22:15:09.358Z,99923.47
2022-09-25T22:19:30.077Z,99911.00
2022-09-25T22:23:32.038Z,99910.91
2022-09-25T22:27:34.297Z,99908.09
2022-09-25T22:31:38.587Z,99914.59
2022-09-25T22:35:40.318Z,99904.50
2022-09-25T22:39:42.390Z,99907.72
2022-09-25T22:43:44.332Z,99909.25
2022-09-25T22:47:46.148Z,99914.00
2022-09-25T22:51:48.309Z,99906.25
2022-09-25T22:55:50.693Z,99889.88
2022-09-25T22:59:52.366Z,99885.38
2022-09-25T23:03:59.067Z,99888.41
2022-09-25T23:08:00.853Z,99878.97
2022-09-25T23:12:03.102Z,99875.25
2022-09-25T23:16:07.805Z,99873.50
2022-09-25T23:20:09.824Z,99864.31
2022-09-25T23:24:14.293Z,99861.94
2022-09-25T23:28:16.405Z,99856.03
2022-09-25T23:32:20.010Z,99860.09
2022-09-25T23:36:24.862Z,99870.03
2022-09-25T23:40:26.663Z,99866.81
2022-09-25T23:44:28.479Z,99865.75
2022-09-25T23:48:30.131Z,99865.91
2022-09-25T23:52:32.065Z,99862.09
2022-09-25T23:56:35.314Z,99864.69
